Startpagina
METAR-TAF:

METAR-TAF

Vliegvelden :

Luchthaven van Khartoem

Khartoem, Soedan

breedte: 15-36N, lengte: 032-33E, hoogte: 382 m

Actueel weer

Dit bericht is 18 minuten geleden gemaakt, om 19:30 UTC
Wind 20 kt uit het zuiden
Temperatuur 34°C
Vochtigheid 32%
Druk 1009 hPa
Zicht 10 km of meer
geen wolken onder 1500 m en geen cumulonimbus

METAR: HSSS 231930Z 19020KT CAVOK 34/15 Q1009 NOSIG

Tijdstip: 22:48 (19:48 UTC)

Verwachting

Dit bericht is 2 uur en het 48 minuten geleden gemaakt, om 17:00 UTC
Verwachting geldig van 23 om 18 UTC tot 24 om 24 UTC
Wind 12 kt uit het zuiden met uitschieters tot 22 kt
Zicht: 6000 m
Tijdelijke
van 23 om 20 UTC tot 24 om 03 UTC
Zicht 10 km of meer
Verspreide wolken op 4000 ft
Verspreide wolken op 14000 ft

TAF: HSSS 231700Z 2318/2424 19012G22KT 6000 NSC TEMPO 2320/2403 9999 SCT040 SCT140

Waarnemingen en weersverwachtingen van meer dan 4000 vliegvelden (METAR en TAF).

De beschikbare stations zijn de gele en rode punten op de kaart.

Ga met uw muis naar het station om de naam te zien.

Klik dan om waarnemingen en weersverwachtingen te zien.

kaart wijzigen: klik op de groene knoppen met een zwart kruis om in te zoomen, op de groene knop met een streepje om uit te zoomen of op de groene pijlen voor aangrenzende kaarten.


METAR-TAF: